sensor_id;sensor_type;location;lat;lon;timestamp;temperature;humidity
67194;DHT22;54121;53.508;49.422;2023-03-23T00:01:17;9.80;45.80
67194;DHT22;54121;53.508;49.422;2023-03-23T00:03:49;9.80;45.90
67194;DHT22;54121;53.508;49.422;2023-03-23T00:06:18;9.60;46.10
67194;DHT22;54121;53.508;49.422;2023-03-23T00:08:46;9.70;46.10
67194;DHT22;54121;53.508;49.422;2023-03-23T00:11:13;9.80;45.70
67194;DHT22;54121;53.508;49.422;2023-03-23T00:13:48;9.80;45.60
67194;DHT22;54121;53.508;49.422;2023-03-23T00:16:19;9.90;45.40
67194;DHT22;54121;53.508;49.422;2023-03-23T00:18:50;9.80;45.60
67194;DHT22;54121;53.508;49.422;2023-03-23T00:21:21;9.80;45.40
67194;DHT22;54121;53.508;49.422;2023-03-23T00:23:51;9.50;46.40
67194;DHT22;54121;53.508;49.422;2023-03-23T00:26:18;9.50;46.30
67194;DHT22;54121;53.508;49.422;2023-03-23T00:28:44;9.60;45.90
67194;DHT22;54121;53.508;49.422;2023-03-23T00:31:12;9.40;46.40
67194;DHT22;54121;53.508;49.422;2023-03-23T00:33:39;9.00;47.50
67194;DHT22;54121;53.508;49.422;2023-03-23T00:36:09;8.60;48.60
67194;DHT22;54121;53.508;49.422;2023-03-23T00:38:38;8.40;49.50
67194;DHT22;54121;53.508;49.422;2023-03-23T00:41:07;8.30;50.00
67194;DHT22;54121;53.508;49.422;2023-03-23T00:43:33;8.20;50.40
67194;DHT22;54121;53.508;49.422;2023-03-23T00:46:02;8.10;50.60
67194;DHT22;54121;53.508;49.422;2023-03-23T00:48:36;8.00;50.70
67194;DHT22;54121;53.508;49.422;2023-03-23T00:51:12;7.90;52.00
67194;DHT22;54121;53.508;49.422;2023-03-23T00:53:41;8.00;50.70
67194;DHT22;54121;53.508;49.422;2023-03-23T00:56:10;8.00;50.60
67194;DHT22;54121;53.508;49.422;2023-03-23T00:58:37;7.90;50.80
67194;DHT22;54121;53.508;49.422;2023-03-23T01:01:05;7.90;50.80
67194;DHT22;54121;53.508;49.422;2023-03-23T01:03:34;7.80;51.00
67194;DHT22;54121;53.508;49.422;2023-03-23T01:06:08;7.80;51.00
67194;DHT22;54121;53.508;49.422;2023-03-23T01:08:40;7.70;51.10
67194;DHT22;54121;53.508;49.422;2023-03-23T01:11:18;7.60;51.10
67194;DHT22;54121;53.508;49.422;2023-03-23T01:13:49;7.50;51.30
67194;DHT22;54121;53.508;49.422;2023-03-23T01:16:18;7.50;51.60
67194;DHT22;54121;53.508;49.422;2023-03-23T01:18:44;7.40;51.70
67194;DHT22;54121;53.508;49.422;2023-03-23T01:21:15;7.40;52.10
67194;DHT22;54121;53.508;49.422;2023-03-23T01:23:44;7.30;52.40
67194;DHT22;54121;53.508;49.422;2023-03-23T01:26:20;7.30;52.70
67194;DHT22;54121;53.508;49.422;2023-03-23T01:28:46;7.20;52.80
67194;DHT22;54121;53.508;49.422;2023-03-23T01:31:18;7.10;53.00
67194;DHT22;54121;53.508;49.422;2023-03-23T01:33:48;7.00;53.20
67194;DHT22;54121;53.508;49.422;2023-03-23T01:36:18;7.00;53.20
67194;DHT22;54121;53.508;49.422;2023-03-23T01:38:45;6.90;53.30
67194;DHT22;54121;53.508;49.422;2023-03-23T01:41:14;6.80;53.80
67194;DHT22;54121;53.508;49.422;2023-03-23T01:46:21;6.70;54.40
67194;DHT22;54121;53.508;49.422;2023-03-23T01:48:50;6.70;54.90
67194;DHT22;54121;53.508;49.422;2023-03-23T01:51:19;6.70;55.20
67194;DHT22;54121;53.508;49.422;2023-03-23T01:53:48;6.60;56.10
67194;DHT22;54121;53.508;49.422;2023-03-23T01:56:20;6.50;58.20
67194;DHT22;54121;53.508;49.422;2023-03-23T01:58:51;6.50;58.00
67194;DHT22;54121;53.508;49.422;2023-03-23T02:01:18;6.50;58.70
67194;DHT22;54121;53.508;49.422;2023-03-23T02:03:47;6.40;59.60
67194;DHT22;54121;53.508;49.422;2023-03-23T02:06:16;6.50;59.50
67194;DHT22;54121;53.508;49.422;2023-03-23T02:08:47;6.50;59.40
67194;DHT22;54121;53.508;49.422;2023-03-23T02:11:17;6.50;59.60
67194;DHT22;54121;53.508;49.422;2023-03-23T02:13:46;6.40;60.00
67194;DHT22;54121;53.508;49.422;2023-03-23T02:31:25;6.30;63.20
67194;DHT22;54121;53.508;49.422;2023-03-23T02:33:59;6.30;63.50
67194;DHT22;54121;53.508;49.422;2023-03-23T02:36:46;6.40;63.30
67194;DHT22;54121;53.508;49.422;2023-03-23T02:39:31;6.40;63.60
67194;DHT22;54121;53.508;49.422;2023-03-23T02:42:05;6.60;63.00
67194;DHT22;54121;53.508;49.422;2023-03-23T02:44:32;6.60;62.80
67194;DHT22;54121;53.508;49.422;2023-03-23T02:47:04;6.60;63.00
67194;DHT22;54121;53.508;49.422;2023-03-23T02:49:34;6.60;63.40
67194;DHT22;54121;53.508;49.422;2023-03-23T02:52:02;6.50;64.10
67194;DHT22;54121;53.508;49.422;2023-03-23T02:54:32;6.50;64.70
67194;DHT22;54121;53.508;49.422;2023-03-23T02:57:02;6.60;64.80
67194;DHT22;54121;53.508;49.422;2023-03-23T02:59:31;6.70;64.00
67194;DHT22;54121;53.508;49.422;2023-03-23T03:02:00;6.70;64.00
67194;DHT22;54121;53.508;49.422;2023-03-23T03:04:28;6.80;63.50
67194;DHT22;54121;53.508;49.422;2023-03-23T03:12:06;7.10;61.80
67194;DHT22;54121;53.508;49.422;2023-03-23T03:14:37;7.10;62.00
67194;DHT22;54121;53.508;49.422;2023-03-23T03:17:07;7.20;62.00
67194;DHT22;54121;53.508;49.422;2023-03-23T03:19:40;7.20;61.70
67194;DHT22;54121;53.508;49.422;2023-03-23T03:22:08;7.20;62.10
67194;DHT22;54121;53.508;49.422;2023-03-23T03:24:37;7.20;62.00
67194;DHT22;54121;53.508;49.422;2023-03-23T03:27:09;7.40;62.60
67194;DHT22;54121;53.508;49.422;2023-03-23T03:29:36;7.60;60.80
67194;DHT22;54121;53.508;49.422;2023-03-23T03:32:10;7.70;60.00
67194;DHT22;54121;53.508;49.422;2023-03-23T03:34:37;7.80;59.70
67194;DHT22;54121;53.508;49.422;2023-03-23T03:37:04;7.80;59.50
67194;DHT22;54121;53.508;49.422;2023-03-23T03:39:34;7.90;59.10
67194;DHT22;54121;53.508;49.422;2023-03-23T03:42:00;8.00;59.00
67194;DHT22;54121;53.508;49.422;2023-03-23T03:44:27;8.10;58.30
67194;DHT22;54121;53.508;49.422;2023-03-23T03:46:56;8.30;58.30
67194;DHT22;54121;53.508;49.422;2023-03-23T03:49:26;8.40;57.80
67194;DHT22;54121;53.508;49.422;2023-03-23T03:51:55;8.40;57.30
67194;DHT22;54121;53.508;49.422;2023-03-23T03:54:22;8.60;56.90
67194;DHT22;54121;53.508;49.422;2023-03-23T03:56:49;8.60;56.70
67194;DHT22;54121;53.508;49.422;2023-03-23T03:59:17;8.70;56.30
67194;DHT22;54121;53.508;49.422;2023-03-23T04:01:46;8.90;55.70
67194;DHT22;54121;53.508;49.422;2023-03-23T04:04:12;9.00;55.50
67194;DHT22;54121;53.508;49.422;2023-03-23T04:06:38;9.10;55.20
67194;DHT22;54121;53.508;49.422;2023-03-23T04:09:06;9.40;55.00
67194;DHT22;54121;53.508;49.422;2023-03-23T04:11:33;9.70;53.90
67194;DHT22;54121;53.508;49.422;2023-03-23T04:13:59;10.10;52.90
67194;DHT22;54121;53.508;49.422;2023-03-23T04:16:26;10.60;51.70
67194;DHT22;54121;53.508;49.422;2023-03-23T04:18:55;11.00;50.10
67194;DHT22;54121;53.508;49.422;2023-03-23T04:21:24;11.50;48.20
67194;DHT22;54121;53.508;49.422;2023-03-23T04:23:56;11.80;46.60
67194;DHT22;54121;53.508;49.422;2023-03-23T04:26:29;12.10;46.40
67194;DHT22;54121;53.508;49.422;2023-03-23T04:28:55;12.50;44.90
67194;DHT22;54121;53.508;49.422;2023-03-23T04:31:24;13.00;43.40
67194;DHT22;54121;53.508;49.422;2023-03-23T04:33:53;13.20;42.80
67194;DHT22;54121;53.508;49.422;2023-03-23T04:36:19;13.50;41.50
67194;DHT22;54121;53.508;49.422;2023-03-23T04:38:48;13.40;41.30
67194;DHT22;54121;53.508;49.422;2023-03-23T04:41:18;13.60;41.30
67194;DHT22;54121;53.508;49.422;2023-03-23T04:43:49;14.20;40.20
67194;DHT22;54121;53.508;49.422;2023-03-23T04:46:19;14.60;38.20
67194;DHT22;54121;53.508;49.422;2023-03-23T04:48:45;14.90;38.10
67194;DHT22;54121;53.508;49.422;2023-03-23T04:51:11;15.20;36.70
67194;DHT22;54121;53.508;49.422;2023-03-23T04:53:43;15.50;36.10
67194;DHT22;54121;53.508;49.422;2023-03-23T04:56:12;15.70;35.70
67194;DHT22;54121;53.508;49.422;2023-03-23T04:58:41;15.80;35.20
67194;DHT22;54121;53.508;49.422;2023-03-23T05:01:10;16.20;34.20
67194;DHT22;54121;53.508;49.422;2023-03-23T05:03:41;16.30;33.50
67194;DHT22;54121;53.508;49.422;2023-03-23T05:06:08;16.20;33.50
67194;DHT22;54121;53.508;49.422;2023-03-23T05:08:35;16.30;33.90
67194;DHT22;54121;53.508;49.422;2023-03-23T05:11:06;16.50;33.10
67194;DHT22;54121;53.508;49.422;2023-03-23T05:13:36;16.90;32.80
67194;DHT22;54121;53.508;49.422;2023-03-23T05:16:05;17.50;31.50
67194;DHT22;54121;53.508;49.422;2023-03-23T05:18:32;17.60;30.60
67194;DHT22;54121;53.508;49.422;2023-03-23T05:21:00;17.70;30.00
67194;DHT22;54121;53.508;49.422;2023-03-23T05:23:26;18.00;29.60
67194;DHT22;54121;53.508;49.422;2023-03-23T05:25:56;18.30;29.10
67194;DHT22;54121;53.508;49.422;2023-03-23T05:28:23;18.20;29.20
67194;DHT22;54121;53.508;49.422;2023-03-23T05:30:49;17.90;29.50
67194;DHT22;54121;53.508;49.422;2023-03-23T05:33:15;17.50;30.20
67194;DHT22;54121;53.508;49.422;2023-03-23T05:35:44;17.90;29.80
67194;DHT22;54121;53.508;49.422;2023-03-23T05:38:11;17.80;29.70
67194;DHT22;54121;53.508;49.422;2023-03-23T05:40:39;17.90;29.60
67194;DHT22;54121;53.508;49.422;2023-03-23T05:43:08;17.80;29.80
67194;DHT22;54121;53.508;49.422;2023-03-23T05:45:34;17.90;29.60
67194;DHT22;54121;53.508;49.422;2023-03-23T05:48:01;18.40;29.20
67194;DHT22;54121;53.508;49.422;2023-03-23T05:50:27;18.60;28.70
67194;DHT22;54121;53.508;49.422;2023-03-23T05:52:56;18.50;28.60
67194;DHT22;54121;53.508;49.422;2023-03-23T05:55:23;19.00;28.10
67194;DHT22;54121;53.508;49.422;2023-03-23T05:57:50;19.00;28.00
67194;DHT22;54121;53.508;49.422;2023-03-23T06:00:19;18.90;28.00
67194;DHT22;54121;53.508;49.422;2023-03-23T06:02:49;19.20;27.70
67194;DHT22;54121;53.508;49.422;2023-03-23T06:05:19;19.20;27.60
67194;DHT22;54121;53.508;49.422;2023-03-23T06:07:50;19.10;27.50
67194;DHT22;54121;53.508;49.422;2023-03-23T06:10:19;18.60;28.40
67194;DHT22;54121;53.508;49.422;2023-03-23T06:12:45;18.80;28.10
67194;DHT22;54121;53.508;49.422;2023-03-23T06:15:11;19.90;26.70
67194;DHT22;54121;53.508;49.422;2023-03-23T06:17:40;19.90;26.20
67194;DHT22;54121;53.508;49.422;2023-03-23T06:20:09;19.80;26.40
67194;DHT22;54121;53.508;49.422;2023-03-23T06:22:38;19.60;26.40
67194;DHT22;54121;53.508;49.422;2023-03-23T06:25:05;19.70;26.30
67194;DHT22;54121;53.508;49.422;2023-03-23T06:27:34;19.90;26.20
67194;DHT22;54121;53.508;49.422;2023-03-23T06:30:01;20.10;26.20
67194;DHT22;54121;53.508;49.422;2023-03-23T06:32:31;20.10;26.00
67194;DHT22;54121;53.508;49.422;2023-03-23T06:35:01;19.80;26.00
67194;DHT22;54121;53.508;49.422;2023-03-23T06:37:29;20.20;25.80
67194;DHT22;54121;53.508;49.422;2023-03-23T06:39:58;20.30;25.50
67194;DHT22;54121;53.508;49.422;2023-03-23T06:42:25;20.40;25.10
67194;DHT22;54121;53.508;49.422;2023-03-23T06:44:51;19.70;25.70
67194;DHT22;54121;53.508;49.422;2023-03-23T06:47:20;19.70;26.30
67194;DHT22;54121;53.508;49.422;2023-03-23T06:49:49;22.80;22.40
67194;DHT22;54121;53.508;49.422;2023-03-23T06:52:17;23.30;20.80
67194;DHT22;54121;53.508;49.422;2023-03-23T06:54:45;24.50;19.70
67194;DHT22;54121;53.508;49.422;2023-03-23T06:57:12;25.30;18.40
67194;DHT22;54121;53.508;49.422;2023-03-23T06:59:38;26.10;17.50
67194;DHT22;54121;53.508;49.422;2023-03-23T07:02:04;26.70;16.90
67194;DHT22;54121;53.508;49.422;2023-03-23T07:04:33;27.00;16.30
67194;DHT22;54121;53.508;49.422;2023-03-23T07:07:01;27.30;15.40
67194;DHT22;54121;53.508;49.422;2023-03-23T07:09:28;27.80;15.10
67194;DHT22;54121;53.508;49.422;2023-03-23T07:11:54;27.60;14.90
67194;DHT22;54121;53.508;49.422;2023-03-23T07:14:22;27.50;15.10
67194;DHT22;54121;53.508;49.422;2023-03-23T07:16:52;28.20;14.40
67194;DHT22;54121;53.508;49.422;2023-03-23T07:19:20;29.10;14.10
67194;DHT22;54121;53.508;49.422;2023-03-23T07:21:51;28.90;13.80
67194;DHT22;54121;53.508;49.422;2023-03-23T07:24:20;29.20;13.70
67194;DHT22;54121;53.508;49.422;2023-03-23T07:26:46;28.90;13.30
67194;DHT22;54121;53.508;49.422;2023-03-23T07:29:12;29.40;13.10
67194;DHT22;54121;53.508;49.422;2023-03-23T07:31:43;29.40;13.10
67194;DHT22;54121;53.508;49.422;2023-03-23T07:34:09;27.50;14.50
67194;DHT22;54121;53.508;49.422;2023-03-23T07:36:35;27.40;14.70
67194;DHT22;54121;53.508;49.422;2023-03-23T07:39:05;27.90;14.20
67194;DHT22;54121;53.508;49.422;2023-03-23T07:41:36;28.80;13.70
67194;DHT22;54121;53.508;49.422;2023-03-23T07:44:03;28.40;13.60
67194;DHT22;54121;53.508;49.422;2023-03-23T07:46:30;28.70;13.80
67194;DHT22;54121;53.508;49.422;2023-03-23T07:48:58;28.90;13.30
67194;DHT22;54121;53.508;49.422;2023-03-23T07:51:31;28.80;13.80
67194;DHT22;54121;53.508;49.422;2023-03-23T07:54:02;29.60;13.00
67194;DHT22;54121;53.508;49.422;2023-03-23T07:56:31;29.00;13.10
67194;DHT22;54121;53.508;49.422;2023-03-23T07:58:57;29.60;13.00
67194;DHT22;54121;53.508;49.422;2023-03-23T08:01:25;29.30;13.00
67194;DHT22;54121;53.508;49.422;2023-03-23T08:03:54;29.40;13.90
67194;DHT22;54121;53.508;49.422;2023-03-23T08:06:23;29.60;13.00
67194;DHT22;54121;53.508;49.422;2023-03-23T08:08:50;28.90;13.00
67194;DHT22;54121;53.508;49.422;2023-03-23T08:11:19;29.60;13.00
67194;DHT22;54121;53.508;49.422;2023-03-23T08:13:46;29.10;12.70
67194;DHT22;54121;53.508;49.422;2023-03-23T08:16:14;29.40;13.00
67194;DHT22;54121;53.508;49.422;2023-03-23T08:18:41;29.70;12.30
67194;DHT22;54121;53.508;49.422;2023-03-23T08:21:07;30.20;12.20
67194;DHT22;54121;53.508;49.422;2023-03-23T08:23:35;30.20;11.90
67194;DHT22;54121;53.508;49.422;2023-03-23T08:26:05;29.40;12.60
67194;DHT22;54121;53.508;49.422;2023-03-23T08:28:35;29.40;13.30
67194;DHT22;54121;53.508;49.422;2023-03-23T08:31:08;29.20;12.40
67194;DHT22;54121;53.508;49.422;2023-03-23T08:33:36;29.20;12.60
67194;DHT22;54121;53.508;49.422;2023-03-23T08:36:03;30.00;12.30
67194;DHT22;54121;53.508;49.422;2023-03-23T08:38:31;29.70;12.70
67194;DHT22;54121;53.508;49.422;2023-03-23T08:40:59;29.90;12.70
67194;DHT22;54121;53.508;49.422;2023-03-23T08:43:25;29.90;12.60
67194;DHT22;54121;53.508;49.422;2023-03-23T08:45:53;29.70;12.80
67194;DHT22;54121;53.508;49.422;2023-03-23T08:48:19;29.30;12.70
67194;DHT22;54121;53.508;49.422;2023-03-23T08:50:46;29.80;12.80
67194;DHT22;54121;53.508;49.422;2023-03-23T08:53:14;29.60;12.80
67194;DHT22;54121;53.508;49.422;2023-03-23T08:55:41;29.40;13.10
67194;DHT22;54121;53.508;49.422;2023-03-23T08:58:09;29.50;13.00
67194;DHT22;54121;53.508;49.422;2023-03-23T09:00:35;29.60;12.60
67194;DHT22;54121;53.508;49.422;2023-03-23T09:03:04;29.70;12.80
67194;DHT22;54121;53.508;49.422;2023-03-23T09:05:36;29.50;12.80
67194;DHT22;54121;53.508;49.422;2023-03-23T09:08:07;30.00;12.30
67194;DHT22;54121;53.508;49.422;2023-03-23T09:10:33;29.80;12.60
67194;DHT22;54121;53.508;49.422;2023-03-23T09:13:02;29.40;13.40
67194;DHT22;54121;53.508;49.422;2023-03-23T09:15:31;29.40;12.30
67194;DHT22;54121;53.508;49.422;2023-03-23T09:17:59;30.00;12.20
67194;DHT22;54121;53.508;49.422;2023-03-23T09:20:29;30.20;12.10
67194;DHT22;54121;53.508;49.422;2023-03-23T09:22:57;29.90;12.20
67194;DHT22;54121;53.508;49.422;2023-03-23T09:25:25;30.20;12.20
67194;DHT22;54121;53.508;49.422;2023-03-23T09:27:52;30.00;12.00
67194;DHT22;54121;53.508;49.422;2023-03-23T09:30:25;30.10;12.20
67194;DHT22;54121;53.508;49.422;2023-03-23T09:32:59;28.60;13.10
67194;DHT22;54121;53.508;49.422;2023-03-23T09:35:29;29.00;12.90
67194;DHT22;54121;53.508;49.422;2023-03-23T09:37:55;29.30;12.80
67194;DHT22;54121;53.508;49.422;2023-03-23T09:40:35;30.20;12.30
67194;DHT22;54121;53.508;49.422;2023-03-23T09:45:48;29.20;13.90
67194;DHT22;54121;53.508;49.422;2023-03-23T09:48:23;28.40;13.20
67194;DHT22;54121;53.508;49.422;2023-03-23T09:50:55;27.80;12.60
67194;DHT22;54121;53.508;49.422;2023-03-23T09:53:24;29.30;12.80
67194;DHT22;54121;53.508;49.422;2023-03-23T09:55:55;29.60;12.70
67194;DHT22;54121;53.508;49.422;2023-03-23T09:58:29;29.90;12.30
67194;DHT22;54121;53.508;49.422;2023-03-23T10:03:26;30.40;12.00
67194;DHT22;54121;53.508;49.422;2023-03-23T10:05:53;30.50;12.00
67194;DHT22;54121;53.508;49.422;2023-03-23T10:08:26;30.40;12.10
67194;DHT22;54121;53.508;49.422;2023-03-23T10:13:23;30.70;12.10
67194;DHT22;54121;53.508;49.422;2023-03-23T10:15:53;30.40;12.10
67194;DHT22;54121;53.508;49.422;2023-03-23T10:18:43;30.40;12.30
67194;DHT22;54121;53.508;49.422;2023-03-23T10:21:13;30.70;12.50
67194;DHT22;54121;53.508;49.422;2023-03-23T10:23:54;30.20;12.70
67194;DHT22;54121;53.508;49.422;2023-03-23T10:28:54;30.60;12.40
67194;DHT22;54121;53.508;49.422;2023-03-23T10:31:23;30.70;12.20
67194;DHT22;54121;53.508;49.422;2023-03-23T10:33:56;30.50;12.20
67194;DHT22;54121;53.508;49.422;2023-03-23T10:41:17;30.10;12.70
67194;DHT22;54121;53.508;49.422;2023-03-23T10:43:46;29.20;13.40
67194;DHT22;54121;53.508;49.422;2023-03-23T10:48:44;30.80;12.50
67194;DHT22;54121;53.508;49.422;2023-03-23T10:51:14;30.90;12.30
67194;DHT22;54121;53.508;49.422;2023-03-23T10:53:49;30.20;12.60
67194;DHT22;54121;53.508;49.422;2023-03-23T10:58:50;31.00;12.70
67194;DHT22;54121;53.508;49.422;2023-03-23T11:01:18;31.90;12.00
67194;DHT22;54121;53.508;49.422;2023-03-23T11:03:45;32.00;12.00
67194;DHT22;54121;53.508;49.422;2023-03-23T11:06:27;32.40;11.60
67194;DHT22;54121;53.508;49.422;2023-03-23T11:11:27;34.50;10.50
67194;DHT22;54121;53.508;49.422;2023-03-23T11:14:01;34.00;10.60
67194;DHT22;54121;53.508;49.422;2023-03-23T11:16:32;33.00;11.10
67194;DHT22;54121;53.508;49.422;2023-03-23T11:19:20;31.60;12.40
67194;DHT22;54121;53.508;49.422;2023-03-23T11:21:47;31.50;12.40
67194;DHT22;54121;53.508;49.422;2023-03-23T11:24:16;32.30;12.10
67194;DHT22;54121;53.508;49.422;2023-03-23T11:26:43;32.20;12.00
67194;DHT22;54121;53.508;49.422;2023-03-23T11:29:18;32.70;11.90
67194;DHT22;54121;53.508;49.422;2023-03-23T11:31:48;32.60;11.90
67194;DHT22;54121;53.508;49.422;2023-03-23T11:34:23;32.60;12.10
67194;DHT22;54121;53.508;49.422;2023-03-23T11:41:54;31.90;12.20
67194;DHT22;54121;53.508;49.422;2023-03-23T11:44:31;31.80;12.50
67194;DHT22;54121;53.508;49.422;2023-03-23T11:50:44;32.60;12.40
67194;DHT22;54121;53.508;49.422;2023-03-23T11:52:41;33.20;11.60
67194;DHT22;54121;53.508;49.422;2023-03-23T11:57:38;33.50;11.50
67194;DHT22;54121;53.508;49.422;2023-03-23T12:00:13;32.50;11.90
67194;DHT22;54121;53.508;49.422;2023-03-23T12:02:45;30.90;10.90
67194;DHT22;54121;53.508;49.422;2023-03-23T12:07:58;30.80;13.30
67194;DHT22;54121;53.508;49.422;2023-03-23T12:10:32;32.60;12.20
67194;DHT22;54121;53.508;49.422;2023-03-23T12:13:05;32.10;12.40
67194;DHT22;54121;53.508;49.422;2023-03-23T12:15:53;31.80;12.30
67194;DHT22;54121;53.508;49.422;2023-03-23T12:23:25;30.30;13.50
67194;DHT22;54121;53.508;49.422;2023-03-23T12:26:01;30.80;13.40
67194;DHT22;54121;53.508;49.422;2023-03-23T12:28:38;29.70;14.30
67194;DHT22;54121;53.508;49.422;2023-03-23T12:31:25;29.90;14.20
67194;DHT22;54121;53.508;49.422;2023-03-23T12:41:57;32.80;11.80
67194;DHT22;54121;53.508;49.422;2023-03-23T12:44:31;30.50;13.80
67194;DHT22;54121;53.508;49.422;2023-03-23T12:47:06;29.30;14.20
67194;DHT22;54121;53.508;49.422;2023-03-23T12:49:41;30.30;14.90
67194;DHT22;54121;53.508;49.422;2023-03-23T12:52:19;27.80;15.80
67194;DHT22;54121;53.508;49.422;2023-03-23T12:54:49;28.20;15.90
67194;DHT22;54121;53.508;49.422;2023-03-23T12:57:27;30.10;14.20
67194;DHT22;54121;53.508;49.422;2023-03-23T13:07:49;30.30;14.20
67194;DHT22;54121;53.508;49.422;2023-03-23T13:12:46;29.60;14.80
67194;DHT22;54121;53.508;49.422;2023-03-23T13:20:54;27.80;16.70
67194;DHT22;54121;53.508;49.422;2023-03-23T13:28:16;25.60;19.20
67194;DHT22;54121;53.508;49.422;2023-03-23T13:30:53;24.60;19.60
67194;DHT22;54121;53.508;49.422;2023-03-23T13:33:25;24.80;20.00
67194;DHT22;54121;53.508;49.422;2023-03-23T13:35:53;25.40;19.40
67194;DHT22;54121;53.508;49.422;2023-03-23T13:38:26;25.20;19.40
67194;DHT22;54121;53.508;49.422;2023-03-23T13:40:56;24.70;20.00
67194;DHT22;54121;53.508;49.422;2023-03-23T13:43:27;24.30;20.50
67194;DHT22;54121;53.508;49.422;2023-03-23T13:45:54;23.90;21.30
67194;DHT22;54121;53.508;49.422;2023-03-23T13:48:23;23.30;21.60
67194;DHT22;54121;53.508;49.422;2023-03-23T13:50:55;23.70;21.50
67194;DHT22;54121;53.508;49.422;2023-03-23T13:53:23;23.60;21.70
67194;DHT22;54121;53.508;49.422;2023-03-23T13:56:03;23.50;22.00
67194;DHT22;54121;53.508;49.422;2023-03-23T13:58:43;23.90;21.50
67194;DHT22;54121;53.508;49.422;2023-03-23T14:01:15;23.50;21.70
67194;DHT22;54121;53.508;49.422;2023-03-23T14:03:45;23.70;21.70
67194;DHT22;54121;53.508;49.422;2023-03-23T14:06:20;23.70;21.70
67194;DHT22;54121;53.508;49.422;2023-03-23T14:08:51;23.40;22.00
67194;DHT22;54121;53.508;49.422;2023-03-23T14:11:25;23.40;22.00
67194;DHT22;54121;53.508;49.422;2023-03-23T14:14:13;23.70;21.70
67194;DHT22;54121;53.508;49.422;2023-03-23T14:16:43;23.60;21.90
67194;DHT22;54121;53.508;49.422;2023-03-23T14:19:28;23.50;22.00
67194;DHT22;54121;53.508;49.422;2023-03-23T14:21:56;22.80;22.90
67194;DHT22;54121;53.508;49.422;2023-03-23T14:24:29;23.00;22.70
67194;DHT22;54121;53.508;49.422;2023-03-23T14:27:10;22.70;23.10
67194;DHT22;54121;53.508;49.422;2023-03-23T14:29:40;22.70;23.10
67194;DHT22;54121;53.508;49.422;2023-03-23T14:32:16;22.00;23.90
67194;DHT22;54121;53.508;49.422;2023-03-23T14:34:48;21.80;24.20
67194;DHT22;54121;53.508;49.422;2023-03-23T14:37:18;21.90;24.20
67194;DHT22;54121;53.508;49.422;2023-03-23T14:39:47;21.70;24.30
67194;DHT22;54121;53.508;49.422;2023-03-23T14:42:19;21.50;24.40
67194;DHT22;54121;53.508;49.422;2023-03-23T14:44:48;21.60;24.60
67194;DHT22;54121;53.508;49.422;2023-03-23T14:47:22;21.30;24.80
67194;DHT22;54121;53.508;49.422;2023-03-23T14:49:53;21.10;25.10
67194;DHT22;54121;53.508;49.422;2023-03-23T14:52:21;20.70;25.70
67194;DHT22;54121;53.508;49.422;2023-03-23T14:54:50;20.00;26.80
67194;DHT22;54121;53.508;49.422;2023-03-23T14:57:20;19.60;27.40
67194;DHT22;54121;53.508;49.422;2023-03-23T14:59:53;19.30;27.80
67194;DHT22;54121;53.508;49.422;2023-03-23T15:02:35;19.20;28.30
67194;DHT22;54121;53.508;49.422;2023-03-23T15:05:03;19.40;27.70
67194;DHT22;54121;53.508;49.422;2023-03-23T15:07:35;19.30;27.90
67194;DHT22;54121;53.508;49.422;2023-03-23T15:10:05;19.10;28.10
67194;DHT22;54121;53.508;49.422;2023-03-23T15:12:31;18.80;28.80
67194;DHT22;54121;53.508;49.422;2023-03-23T15:15:02;18.60;29.30
67194;DHT22;54121;53.508;49.422;2023-03-23T15:17:32;18.20;29.80
67194;DHT22;54121;53.508;49.422;2023-03-23T15:20:07;18.30;29.70
67194;DHT22;54121;53.508;49.422;2023-03-23T15:22:34;17.90;30.20
67194;DHT22;54121;53.508;49.422;2023-03-23T15:25:07;17.80;30.80
67194;DHT22;54121;53.508;49.422;2023-03-23T15:27:39;17.60;30.90
67194;DHT22;54121;53.508;49.422;2023-03-23T15:32:38;16.90;32.60
67194;DHT22;54121;53.508;49.422;2023-03-23T15:35:11;17.10;32.40
67194;DHT22;54121;53.508;49.422;2023-03-23T15:37:42;16.90;32.50
67194;DHT22;54121;53.508;49.422;2023-03-23T15:40:18;16.60;33.40
67194;DHT22;54121;53.508;49.422;2023-03-23T15:42:45;16.80;32.90
67194;DHT22;54121;53.508;49.422;2023-03-23T15:52:36;16.50;33.40
67194;DHT22;54121;53.508;49.422;2023-03-23T15:55:03;16.10;34.20
67194;DHT22;54121;53.508;49.422;2023-03-23T15:57:33;16.20;34.00
67194;DHT22;54121;53.508;49.422;2023-03-23T15:59:59;16.20;34.20
67194;DHT22;54121;53.508;49.422;2023-03-23T16:02:28;16.10;34.10
67194;DHT22;54121;53.508;49.422;2023-03-23T16:04:54;15.70;35.30
67194;DHT22;54121;53.508;49.422;2023-03-23T16:07:21;15.50;35.70
67194;DHT22;54121;53.508;49.422;2023-03-23T16:09:50;15.10;36.70
67194;DHT22;54121;53.508;49.422;2023-03-23T16:12:18;14.50;37.90
67194;DHT22;54121;53.508;49.422;2023-03-23T16:14:45;15.70;37.30
67194;DHT22;54121;53.508;49.422;2023-03-23T16:17:11;14.10;39.20
67194;DHT22;54121;53.508;49.422;2023-03-23T16:19:40;14.20;39.30
67194;DHT22;54121;53.508;49.422;2023-03-23T16:22:10;14.60;37.80
67194;DHT22;54121;53.508;49.422;2023-03-23T16:24:38;14.10;39.20
67194;DHT22;54121;53.508;49.422;2023-03-23T16:27:05;14.50;37.90
67194;DHT22;54121;53.508;49.422;2023-03-23T16:29:31;14.90;36.80
67194;DHT22;54121;53.508;49.422;2023-03-23T16:32:01;15.00;36.40
67194;DHT22;54121;53.508;49.422;2023-03-23T16:34:27;14.90;36.60
67194;DHT22;54121;53.508;49.422;2023-03-23T16:36:57;14.90;36.70
67194;DHT22;54121;53.508;49.422;2023-03-23T16:39:24;14.80;37.10
67194;DHT22;54121;53.508;49.422;2023-03-23T16:41:50;14.70;37.60
67194;DHT22;54121;53.508;49.422;2023-03-23T16:44:19;14.50;38.10
67194;DHT22;54121;53.508;49.422;2023-03-23T16:46:47;14.60;38.10
67194;DHT22;54121;53.508;49.422;2023-03-23T16:49:13;14.70;37.70
67194;DHT22;54121;53.508;49.422;2023-03-23T16:51:42;14.70;37.80
67194;DHT22;54121;53.508;49.422;2023-03-23T16:54:08;14.60;38.40
67194;DHT22;54121;53.508;49.422;2023-03-23T16:56:35;14.50;38.60
67194;DHT22;54121;53.508;49.422;2023-03-23T16:59:02;14.00;39.20
67194;DHT22;54121;53.508;49.422;2023-03-23T17:01:32;14.10;39.40
67194;DHT22;54121;53.508;49.422;2023-03-23T17:04:01;13.50;41.50
67194;DHT22;54121;53.508;49.422;2023-03-23T17:06:27;14.10;39.70
67194;DHT22;54121;53.508;49.422;2023-03-23T17:08:56;14.20;39.00
67194;DHT22;54121;53.508;49.422;2023-03-23T17:11:24;14.00;39.40
67194;DHT22;54121;53.508;49.422;2023-03-23T17:13:51;14.20;38.90
67194;DHT22;54121;53.508;49.422;2023-03-23T17:16:19;14.10;39.30
67194;DHT22;54121;53.508;49.422;2023-03-23T17:18:48;14.20;38.90